Milo, Missouri
Current Conditions -  °F | °C
As of 8:35 AM on Thursday 29 Jan 2015 (Local Time) from KPTS Reporting Station
Overcast Overcast  
Wind Chill: 35°   Ceiling: 2200
Heat Index: 42°   Visibility: 10mi
Dew Point: 34°   Wind: 15mph
Humidity: 72%   Direction: 350°N
Pressure: 30.24"   Gusts: 24mph
Location:  37.76°N, 94.31°W
Report Text: KPTS 291435Z AUTO 35013G21KT 320V020 10SM OVC022 06/01 A3024 RMK AO2 T00560009
Loading
Personal Weather Stations






























Interactive Weather Map New forecast layout! Learn more

10-Day Weather Forecast

Advertisements
Track Severe Weather on mobile